Upper Deerfield Twp, New Jersey
Current Conditions -  °F | °C
As of 11:54 AM on Saturday 22 Nov 2014 (Local Time) from KMIV Reporting Station
Clear Clear  
Wind Chill: 36°   Ceiling: Unl
Heat Index: 41°   Visibility: 10mi
Dew Point: 18°   Wind: 7mph
Humidity: 40%   Direction: NA
Pressure: 30.45"   Gusts: 18mph
Location:  39.4433°N, 75.2554°W
Report Text: KMIV 221654Z AUTO VRB06G16KT 10SM CLR 05/M08 A3045 RMK AO2 SLP310 T00501078
Loading
Personal Weather Stations






























Interactive Weather Map New forecast layout! Learn more

10-Day Weather Forecast

Advertisements
Track Severe Weather on mobile